Time;durP1;ratioP1;P1;durP2;ratioP2;P2;SDS_P1;SDS_P2;PMS_P1;PMS_P2;Temp;Humidity;BMP_temperature;BMP_pressure;BME280_temperature;BME280_humidity;BME280_pressure;Samples;Min_cycle;Max_cycle;Signal;HPM_P1;HPM_P2
2021/12/15 00:02:05;;;;;;;13.10;9.00;;;;;;;3.85;100.00;100745.53;5072701;28;20047;-71
2021/12/15 00:04:39;;;;;;;11.20;7.80;;;;;;;4.21;100.00;100756.00;5073600;28;20017;-71
2021/12/15 00:07:06;;;;;;;10.38;7.40;;;;;;;4.12;100.00;100750.84;5072264;28;20082;-72
2021/12/15 00:09:32;;;;;;;14.00;7.95;;;;;;;3.29;100.00;100754.88;5073620;28;20119;-72
2021/12/15 00:12:14;;;;;;;9.52;6.70;;;;;;;3.26;100.00;100727.22;5073778;28;20064;-72
2021/12/15 00:14:44;;;;;;;12.80;8.40;;;;;;;3.65;100.00;100738.56;5073850;28;20166;-72
2021/12/15 00:17:12;;;;;;;14.85;9.32;;;;;;;3.85;100.00;100744.69;5073625;28;20510;-72
2021/12/15 00:19:41;;;;;;;15.18;9.95;;;;;;;3.53;100.00;100723.38;5073580;28;20021;-71
2021/12/15 00:22:19;;;;;;;13.82;9.25;;;;;;;3.86;100.00;100743.88;5073494;28;20029;-71
2021/12/15 00:24:46;;;;;;;14.23;9.48;;;;;;;3.74;100.00;100748.75;5072334;28;20412;-71
2021/12/15 00:27:15;;;;;;;14.77;10.23;;;;;;;3.85;100.00;100749.72;5073407;28;20540;-71
2021/12/15 00:30:03;;;;;;;12.90;9.52;;;;;;;3.88;100.00;100747.25;5073233;28;20025;-71
2021/12/15 00:32:30;;;;;;;13.32;9.48;;;;;;;3.71;100.00;100724.41;5073320;28;20029;-71
2021/12/15 00:34:58;;;;;;;10.52;7.22;;;;;;;3.55;100.00;100745.16;5073154;28;20107;-71
2021/12/15 00:37:24;;;;;;;14.60;8.38;;;;;;;3.64;100.00;100741.94;5072945;28;20162;-71
2021/12/15 00:39:50;;;;;;;10.65;7.32;;;;;;;3.40;100.00;100745.84;5073239;28;20056;-71
2021/12/15 00:42:16;;;;;;;9.43;7.07;;;;;;;3.44;100.00;100735.00;5071240;28;20403;-71
2021/12/15 00:44:45;;;;;;;11.13;7.80;;;;;;;3.33;100.00;100728.97;5072713;28;20037;-71
2021/12/15 00:47:11;;;;;;;10.65;7.75;;;;;;;3.48;100.00;100726.69;5073242;28;20024;-71
2021/12/15 00:49:41;;;;;;;9.35;6.97;;;;;;;3.63;100.00;100710.06;5072871;28;20416;-71
2021/12/15 00:52:08;;;;;;;11.15;7.60;;;;;;;3.51;100.00;100701.56;5072904;28;20021;-71
2021/12/15 00:54:36;;;;;;;12.88;8.35;;;;;;;3.57;100.00;100718.38;5071655;28;20098;-71
2021/12/15 00:57:07;;;;;;;15.57;10.45;;;;;;;3.20;100.00;100709.56;5071490;28;20025;-71
2021/12/15 00:59:34;;;;;;;14.63;9.37;;;;;;;3.35;100.00;100707.22;5072648;28;20024;-71
2021/12/15 01:02:09;;;;;;;14.40;9.70;;;;;;;3.30;100.00;100708.00;5072635;28;20271;-71
2021/12/15 01:04:36;;;;;;;13.77;9.45;;;;;;;3.54;100.00;100696.56;5072563;28;20028;-71
2021/12/15 01:07:08;;;;;;;13.75;9.55;;;;;;;3.39;100.00;100668.75;5072478;28;20062;-71
2021/12/15 01:09:42;;;;;;;;;;;;;;;3.77;100.00;100686.78;5071641;28;20464;-71
2021/12/15 01:12:25;;;;;;;13.68;8.85;;;;;;;3.72;100.00;100675.00;5072286;28;20443;-71
2021/12/15 01:20:47;;;;;;;10.98;7.18;;;;;;;3.87;100.00;100675.13;5071852;28;20405;-71
2021/12/15 01:23:23;;;;;;;9.80;6.85;;;;;;;4.22;100.00;100673.78;5072520;28;20025;-71
2021/12/15 01:26:03;;;;;;;11.02;7.63;;;;;;;3.88;100.00;100651.69;5072044;28;20028;-71
2021/12/15 01:28:32;;;;;;;11.57;7.90;;;;;;;3.99;100.00;100655.16;5070820;28;20034;-73
2021/12/15 01:31:00;;;;;;;13.10;8.80;;;;;;;4.03;100.00;100651.81;5070982;28;20028;-71
2021/12/15 01:33:30;;;;;;;13.90;9.98;;;;;;;4.06;100.00;100651.88;5071951;28;20025;-71
2021/12/15 01:36:06;;;;;;;13.02;9.63;;;;;;;3.92;100.00;100655.94;5070624;28;20035;-71
2021/12/15 01:38:48;;;;;;;13.45;9.40;;;;;;;3.98;100.00;100643.41;5071954;28;20040;-71
2021/12/15 01:41:22;;;;;;;12.80;9.38;;;;;;;4.02;100.00;100627.53;5072409;28;20033;-72
2021/12/15 01:46:57;;;;;;;12.10;8.40;;;;;;;4.22;100.00;100636.91;5071979;28;20558;-72
2021/12/15 01:49:47;;;;;;;12.57;8.52;;;;;;;4.20;100.00;100645.25;5070540;28;20550;-72
2021/12/15 01:52:26;;;;;;;11.82;8.02;;;;;;;4.22;100.00;100648.63;5071638;28;20407;-71
2021/12/15 01:55:06;;;;;;;12.30;8.23;;;;;;;3.96;100.00;100650.09;5071832;28;20020;-71
2021/12/15 01:57:39;;;;;;;12.82;8.07;;;;;;;3.91;100.00;100642.50;5071737;28;20074;-71
2021/12/15 02:00:13;;;;;;;11.00;7.80;;;;;;;3.85;100.00;100650.00;5070320;28;20027;-71
2021/12/15 02:02:42;;;;;;;9.40;6.90;;;;;;;4.11;100.00;100650.22;5071697;28;20107;-71
2021/12/15 02:05:10;;;;;;;9.88;6.82;;;;;;;4.33;100.00;100655.47;5071495;28;20539;-71
2021/12/15 02:07:47;;;;;;;8.93;6.40;;;;;;;4.33;100.00;100657.13;5070308;28;20037;-71
2021/12/15 02:10:15;;;;;;;10.63;6.53;;;;;;;4.57;100.00;100657.31;5071699;28;20512;-71
2021/12/15 02:12:50;;;;;;;9.55;6.28;;;;;;;4.49;100.00;100666.50;5070316;28;20037;-71
2021/12/15 02:15:41;;;;;;;9.68;6.10;;;;;;;4.39;100.00;100670.63;5071396;28;20025;-71
2021/12/15 02:18:14;;;;;;;8.32;6.38;;;;;;;3.97;100.00;100657.66;5070225;28;20404;-71
2021/12/15 02:20:53;;;;;;;10.75;7.38;;;;;;;3.89;100.00;100663.44;5070311;28;20119;-72
2021/12/15 02:23:30;;;;;;;10.25;8.13;;;;;;;3.57;100.00;100664.75;5070515;28;20464;-72
2021/12/15 02:26:08;;;;;;;8.30;6.57;;;;;;;3.76;100.00;100676.72;5071455;28;20032;-72
2021/12/15 02:28:37;;;;;;;10.77;6.28;;;;;;;3.89;100.00;100668.44;5070095;28;20029;-72
2021/12/15 02:39:08;;;;;;;8.93;6.28;;;;;;;4.17;100.00;100681.31;5071561;28;20554;-72
2021/12/15 02:41:37;;;;;;;9.73;6.40;;;;;;;3.63;100.00;100577.69;5071720;28;20781;-72
2021/12/15 02:44:09;;;;;;;8.25;5.38;;;;;;;4.94;100.00;100664.28;5071068;28;20040;-70
2021/12/15 02:46:43;;;;;;;7.80;5.28;;;;;;;4.75;100.00;100674.22;5070881;28;20033;-72
2021/12/15 02:49:22;;;;;;;7.40;4.70;;;;;;;4.91;100.00;100696.97;5069862;28;20111;-71
2021/12/15 02:52:00;;;;;;;7.45;5.30;;;;;;;4.81;100.00;100707.84;5069966;28;20059;-71
2021/12/15 02:54:30;;;;;;;6.90;4.70;;;;;;;4.83;100.00;100703.63;5069990;28;20025;-72
2021/12/15 02:57:04;;;;;;;8.43;5.50;;;;;;;4.72;100.00;100702.75;5071158;28;20067;-72
2021/12/15 03:00:04;;;;;;;6.82;5.28;;;;;;;4.71;100.00;100698.56;5069735;28;20520;-71
2021/12/15 03:05:20;;;;;;;7.35;5.05;;;;;;;4.46;100.00;100694.13;5071313;28;20035;-71
2021/12/15 03:08:22;;;;;;;7.40;4.80;;;;;;;4.49;100.00;100690.81;5069963;28;20488;-72
2021/12/15 03:16:43;;;;;;;7.22;4.97;;;;;;;4.40;100.00;100704.16;5070950;28;20063;-72
2021/12/15 03:19:13;;;;;;;8.18;5.65;;;;;;;3.91;100.00;100685.25;5070755;28;20059;-72
2021/12/15 03:21:49;;;;;;;9.38;6.13;;;;;;;4.26;100.00;100720.78;5071025;28;20055;-72
2021/12/15 03:24:21;;;;;;;9.70;6.93;;;;;;;3.41;100.00;100719.88;5070837;28;20029;-72
2021/12/15 03:27:12;;;;;;;10.40;7.43;;;;;;;3.19;100.00;100679.41;5069587;28;20470;-73
2021/12/15 03:35:47;;;;;;;14.40;8.57;;;;;;;2.89;100.00;100722.50;5070581;28;20118;-71
2021/12/15 03:38:25;;;;;;;17.85;9.65;;;;;;;2.91;100.00;100717.50;5070719;28;20416;-72
2021/12/15 03:40:54;;;;;;;16.80;9.63;;;;;;;2.72;100.00;100706.31;5071096;28;20031;-72
2021/12/15 03:43:21;;;;;;;17.27;10.25;;;;;;;2.81;100.00;100709.00;5070425;28;20056;-72
2021/12/15 03:46:23;;;;;;;44.30;20.63;;;;;;;2.52;100.00;100725.25;5074323;28;20098;-72
2021/12/15 03:49:02;;;;;;;;;;;;;;;2.98;100.00;100730.16;5072765;28;20063;-72
2021/12/15 03:51:44;;;;;;;77.03;32.75;;;;;;;2.60;100.00;100728.72;5073838;28;19912;-72
2021/12/15 03:54:12;;;;;;;81.95;38.17;;;;;;;2.93;100.00;100714.16;5073981;28;20028;-72
2021/12/15 03:56:42;;;;;;;60.72;32.70;;;;;;;2.92;100.00;100711.66;5073926;28;20071;-72
2021/12/15 03:59:08;;;;;;;65.55;33.78;;;;;;;2.82;100.00;100730.75;5074174;28;20028;-72
2021/12/15 04:01:36;;;;;;;94.63;44.63;;;;;;;3.03;100.00;100731.06;5072766;28;20090;-72
2021/12/15 04:04:23;;;;;;;41.45;22.65;;;;;;;2.98;100.00;100722.63;5073935;28;20021;-72
2021/12/15 04:06:53;;;;;;;48.35;29.23;;;;;;;2.55;100.00;100707.75;5073858;28;20060;-72
2021/12/15 04:09:19;;;;;;;45.22;27.85;;;;;;;2.76;100.00;100725.63;5072415;28;20025;-72
2021/12/15 04:11:57;;;;;;;45.88;25.52;;;;;;;2.78;100.00;100731.53;5073778;28;20063;-73
2021/12/15 04:14:31;;;;;;;47.60;24.25;;;;;;;2.65;100.00;100737.19;5072503;28;20028;-72
2021/12/15 04:17:07;;;;;;;21.90;14.75;;;;;;;2.42;100.00;100738.44;5073659;28;20107;-71
2021/12/15 04:19:41;;;;;;;19.52;12.05;;;;;;;2.79;100.00;100740.75;5069902;28;20085;-71
2021/12/15 04:22:07;;;;;;;18.30;12.10;;;;;;;2.98;100.00;100736.84;5073384;28;20028;-71
2021/12/15 04:24:36;;;;;;;19.00;13.02;;;;;;;2.63;100.00;100727.09;5073012;28;20483;-72
2021/12/15 04:27:03;;;;;;;19.92;12.43;;;;;;;2.57;100.00;100727.03;5072578;28;20029;-72
2021/12/15 04:30:10;;;;;;;20.85;12.77;;;;;;;2.68;100.00;100737.22;5073114;28;20063;-76
2021/12/15 04:32:45;;;;;;;19.17;12.55;;;;;;;2.80;100.00;100697.25;5070734;28;20044;-75
2021/12/15 04:35:15;;;;;;;20.98;13.07;;;;;;;2.49;100.00;100700.97;5057401;28;20059;-70
2021/12/15 04:37:43;;;;;;;19.30;12.50;;;;;;;2.45;100.00;100741.88;5052536;28;20515;-71
2021/12/15 04:40:16;;;;;;;19.48;12.77;;;;;;;2.60;100.00;100733.75;5052097;28;20033;-72
2021/12/15 04:42:43;;;;;;;169.70;57.45;;;;;;;2.58;100.00;100737.88;5051252;28;20033;-69
2021/12/15 04:45:15;;;;;;;102.72;40.97;;;;;;;2.72;100.00;100698.81;5052899;28;20124;-71
2021/12/15 04:47:52;;;;;;;264.83;88.70;;;;;;;2.87;100.00;100728.31;5051252;28;20041;-76
2021/12/15 04:50:40;;;;;;;185.32;62.95;;;;;;;2.69;100.00;100733.06;5051914;28;20078;-78
2021/12/15 04:53:14;;;;;;;109.78;48.70;;;;;;;2.21;100.00;100661.19;5052774;28;20037;-79
2021/12/15 04:55:41;;;;;;;64.65;36.17;;;;;;;2.91;100.00;100735.06;5051248;28;20497;-71
2021/12/15 04:58:09;;;;;;;76.72;42.53;;;;;;;2.67;100.00;100728.84;5051396;28;20025;-70
2021/12/15 05:01:02;;;;;;;68.82;40.35;;;;;;;2.91;100.00;100727.53;5070053;28;20055;-72
2021/12/15 05:03:34;;;;;;;58.88;37.42;;;;;;;2.71;100.00;100718.88;5070353;28;20512;-69
2021/12/15 05:06:00;;;;;;;61.22;37.03;;;;;;;2.60;100.00;100708.66;5072081;28;20037;-70
2021/12/15 05:08:44;;;;;;;65.72;40.30;;;;;;;2.66;100.00;100718.78;5070578;28;20086;-73
2021/12/15 05:11:12;;;;;;;68.20;42.03;;;;;;;2.69;100.00;100711.31;5072037;28;20090;-72
2021/12/15 05:13:42;;;;;;;66.95;43.00;;;;;;;2.65;100.00;100717.09;5070701;28;20036;-72
2021/12/15 05:16:09;;;;;;;75.40;48.00;;;;;;;2.70;100.00;100714.66;5072391;28;20028;-71
2021/12/15 05:18:40;;;;;;;68.07;42.45;;;;;;;2.44;100.00;100729.28;5069905;28;20059;-73
2021/12/15 05:21:07;;;;;;;55.85;37.38;;;;;;;2.74;100.00;100721.41;5071013;28;20032;-71
2021/12/15 05:23:49;;;;;;;48.10;34.08;;;;;;;2.95;100.00;100735.13;5072519;28;20115;-75
2021/12/15 05:26:31;;;;;;;42.42;27.45;;;;;;;2.73;100.00;100718.06;5070723;28;20530;-74
2021/12/15 05:28:59;;;;;;;39.40;27.13;;;;;;;2.98;100.00;100701.69;5070753;28;20044;-73
2021/12/15 05:31:36;;;;;;;37.78;27.23;;;;;;;3.25;100.00;100730.53;5072064;28;20054;-74
2021/12/15 05:34:22;;;;;;;28.70;19.65;;;;;;;3.42;100.00;100745.84;5070456;28;20493;-74
2021/12/15 05:37:07;;;;;;;21.52;13.80;;;;;;;3.49;100.00;100717.44;5071038;28;20020;-74
2021/12/15 05:39:52;;;;;;;18.35;13.18;;;;;;;3.67;100.00;100749.50;5070309;28;20039;-75
2021/12/15 05:42:33;;;;;;;22.05;14.90;;;;;;;3.80;100.00;100738.78;5071819;28;20028;-75
2021/12/15 05:44:59;;;;;;;30.90;18.60;;;;;;;4.00;100.00;100745.69;5071491;28;20444;-69
2021/12/15 05:47:26;;;;;;;36.35;21.77;;;;;;;4.03;100.00;100743.22;5071115;28;20275;-68
2021/12/15 05:49:53;;;;;;;44.22;25.02;;;;;;;4.28;100.00;100751.84;5070144;28;20031;-68
2021/12/15 05:52:19;;;;;;;27.02;17.08;;;;;;;4.34;100.00;100761.97;5070578;28;20086;-68
2021/12/15 05:54:46;;;;;;;34.33;22.33;;;;;;;4.11;100.00;100765.94;5070140;28;20028;-67
2021/12/15 05:57:13;;;;;;;28.45;18.55;;;;;;;4.10;100.00;100759.25;5068915;28;20093;-68
2021/12/15 05:59:40;;;;;;;29.77;19.95;;;;;;;4.10;100.00;100774.34;5071035;28;20024;-67
2021/12/15 06:02:08;;;;;;;14.40;9.95;;;;;;;4.59;100.00;100776.50;5071402;28;20407;-68
2021/12/15 06:04:34;;;;;;;18.15;13.13;;;;;;;4.03;100.00;100719.75;5070975;28;20032;-67
2021/12/15 06:07:03;;;;;;;24.92;16.45;;;;;;;4.32;100.00;100789.66;5070776;28;20090;-68
2021/12/15 06:09:29;;;;;;;29.85;19.15;;;;;;;4.42;100.00;100784.72;5068893;28;20029;-67
2021/12/15 06:11:56;;;;;;;29.77;19.88;;;;;;;4.10;100.00;100777.66;5069115;28;20086;-68
2021/12/15 06:14:24;;;;;;;29.58;19.65;;;;;;;3.72;100.00;100712.69;5069365;28;20039;-68
2021/12/15 06:16:57;;;;;;;30.63;19.90;;;;;;;4.22;100.00;100784.50;5069311;28;20540;-66
2021/12/15 06:19:23;;;;;;;34.67;21.63;;;;;;;4.14;100.00;100789.44;5067966;28;20082;-68
2021/12/15 06:21:49;;;;;;;31.98;21.20;;;;;;;4.28;100.00;100794.63;5068265;28;20400;-67
2021/12/15 06:24:16;;;;;;;31.20;20.35;;;;;;;4.87;100.00;100783.44;5068462;28;20033;-68
2021/12/15 06:26:42;;;;;;;30.48;20.33;;;;;;;5.46;100.00;100783.00;5069230;28;20087;-68
2021/12/15 06:29:08;;;;;;;32.95;19.35;;;;;;;6.50;100.00;100789.28;5070972;28;20493;-68
2021/12/15 06:31:35;;;;;;;31.23;21.40;;;;;;;7.03;100.00;100782.56;5070754;28;20099;-67
2021/12/15 06:34:02;;;;;;;45.35;32.55;;;;;;;7.67;100.00;100787.50;5069315;28;20134;-67
2021/12/15 06:36:30;;;;;;;38.97;26.85;;;;;;;8.70;100.00;100793.75;5069586;28;20020;-67
2021/12/15 06:38:56;;;;;;;28.20;19.00;;;;;;;9.03;100.00;100761.38;5070646;28;20063;-68
2021/12/15 06:41:23;;;;;;;26.77;21.65;;;;;;;8.86;100.00;100773.34;5071179;28;20103;-68
2021/12/15 06:43:55;;;;;;;33.53;22.73;;;;;;;7.57;100.00;100813.69;5070370;28;20044;-67
2021/12/15 06:57:31;;;;;;;42.53;30.95;;;;;;;10.41;100.00;100805.50;5070752;28;20055;-68
2021/12/15 06:59:58;;;;;;;60.58;41.20;;;;;;;7.71;100.00;100814.47;5070393;28;20029;-68
2021/12/15 07:02:24;;;;;;;52.53;39.17;;;;;;;6.83;100.00;100834.81;5070636;28;20024;-68
2021/12/15 07:04:50;;;;;;;40.10;27.25;;;;;;;6.65;100.00;100829.75;5068978;28;20043;-67
2021/12/15 07:07:15;;;;;;;45.42;30.75;;;;;;;7.01;100.00;100844.94;5070374;28;20025;-68
2021/12/15 07:09:41;;;;;;;42.90;29.98;;;;;;;6.88;100.00;100833.13;5070522;28;20028;-67
2021/12/15 07:12:07;;;;;;;19.65;14.40;;;;;;;6.66;100.00;100844.06;5068991;28;20505;-68
2021/12/15 07:14:33;;;;;;;21.50;15.95;;;;;;;6.85;100.00;100842.41;5068940;28;20033;-68
2021/12/15 07:16:59;;;;;;;24.92;15.80;;;;;;;6.69;100.00;100839.03;5069116;28;20031;-68
2021/12/15 07:24:56;;;;;;;23.60;16.13;;;;;;;6.81;100.00;100849.13;5083903;28;20044;-68
2021/12/15 07:27:21;;;;;;;72.43;44.03;;;;;;;7.39;100.00;100847.44;5073914;28;20021;-68
2021/12/15 07:29:47;;;;;;;42.60;26.60;;;;;;;6.82;100.00;100855.88;5073860;28;20039;-69
2021/12/15 07:32:13;;;;;;;20.98;12.95;;;;;;;6.34;100.00;100860.81;5072675;28;20116;-69
2021/12/15 07:34:38;;;;;;;21.73;13.88;;;;;;;6.25;100.00;100857.41;5073798;28;20024;-68
2021/12/15 07:37:04;;;;;;;28.02;19.40;;;;;;;6.46;100.00;100844.84;5073874;28;20071;-69
2021/12/15 07:39:29;;;;;;;26.70;17.13;;;;;;;6.51;100.00;100856.66;5072633;28;20094;-69
2021/12/15 07:42:05;;;;;;;31.65;20.85;;;;;;;6.43;100.00;100835.59;5073622;28;20063;-69
2021/12/15 07:44:32;;;;;;;23.13;15.60;;;;;;;6.07;100.00;100845.56;5072225;28;20123;-69
2021/12/15 07:46:58;;;;;;;21.10;13.68;;;;;;;6.33;100.00;100863.31;5072537;28;20035;-69
2021/12/15 07:49:25;;;;;;;27.02;17.83;;;;;;;5.96;100.00;100859.81;5072352;28;20025;-69
2021/12/15 07:51:59;;;;;;;26.63;16.83;;;;;;;5.41;100.00;100893.06;5073777;28;20555;-69
2021/12/15 07:54:26;;;;;;;27.48;17.73;;;;;;;5.18;100.00;100888.69;5073611;28;20073;-69
2021/12/15 07:56:52;;;;;;;26.40;16.35;;;;;;;5.99;100.00;100872.44;5072162;28;20119;-68
2021/12/15 07:59:17;;;;;;;28.85;17.92;;;;;;;6.83;100.00;100879.47;5073501;28;20104;-68
2021/12/15 08:05:23;;;;;;;24.57;14.80;;;;;;;6.49;100.00;100877.69;5073637;28;20047;-67
2021/12/15 08:07:48;;;;;;;41.28;24.42;;;;;;;6.72;100.00;100844.06;5071973;28;20270;-68
2021/12/15 08:10:14;;;;;;;42.85;25.45;;;;;;;6.90;100.00;100891.25;5071920;28;20028;-69
2021/12/15 08:12:43;;;;;;;25.52;15.85;;;;;;;6.85;100.00;100882.84;5071946;28;20444;-69
2021/12/15 08:15:10;;;;;;;24.02;16.00;;;;;;;7.28;100.00;100883.69;5073131;28;20017;-69
2021/12/15 08:17:37;;;;;;;25.35;14.80;;;;;;;7.20;100.00;100887.91;5072975;28;20109;-69
2021/12/15 08:20:06;;;;;;;27.20;17.02;;;;;;;7.41;100.00;100880.31;5072062;28;20082;-69
2021/12/15 08:22:32;;;;;;;24.85;15.93;;;;;;;6.92;100.00;100880.31;5072997;28;20443;-68
2021/12/15 08:24:57;;;;;;;22.08;15.20;;;;;;;7.06;100.00;100884.53;5073064;28;20473;-69
2021/12/15 08:27:23;;;;;;;79.38;32.40;;;;;;;7.13;100.00;100888.78;5072881;28;20028;-69
2021/12/15 08:29:48;;;;;;;89.50;33.63;;;;;;;7.25;100.00;100855.91;5072661;28;20064;-69
2021/12/15 08:32:14;;;;;;;59.28;31.45;;;;;;;6.79;100.00;100882.81;5072897;28;20518;-68
2021/12/15 08:34:39;;;;;;;20.60;14.07;;;;;;;7.08;100.00;100881.16;5072794;28;20021;-68
2021/12/15 08:37:05;;;;;;;17.73;11.50;;;;;;;6.95;100.00;100870.19;5072984;28;20021;-68
2021/12/15 08:39:31;;;;;;;73.97;27.60;;;;;;;7.28;100.00;100871.06;5071551;28;20021;-68
2021/12/15 08:41:57;;;;;;;16.30;10.57;;;;;;;6.90;100.00;100879.47;5072656;28;20036;-68
2021/12/15 08:44:22;;;;;;;87.57;29.30;;;;;;;7.37;100.00;100876.13;5071168;28;20045;-68
2021/12/15 08:46:49;;;;;;;66.88;23.63;;;;;;;7.35;100.00;100877.81;5072470;28;20035;-68
2021/12/15 08:49:18;;;;;;;38.17;14.05;;;;;;;7.30;100.00;100876.97;5071081;28;20405;-67
2021/12/15 08:51:45;;;;;;;58.88;19.48;;;;;;;7.33;100.00;100882.03;5071196;28;20031;-69
2021/12/15 08:54:14;;;;;;;24.17;12.02;;;;;;;7.34;100.00;100871.06;5072418;28;20032;-68
2021/12/15 08:56:41;;;;;;;34.50;15.15;;;;;;;7.34;100.00;100868.53;5070991;28;20040;-68
2021/12/15 08:59:07;;;;;;;29.52;13.48;;;;;;;7.27;100.00;100844.91;5071052;28;20036;-69
2021/12/15 09:01:33;;;;;;;11.48;7.75;;;;;;;7.32;100.00;100877.81;5070885;28;20017;-68
2021/12/15 09:03:59;;;;;;;13.02;8.73;;;;;;;7.53;100.00;100876.09;5072175;28;20036;-68
2021/12/15 09:06:25;;;;;;;26.05;15.88;;;;;;;7.58;100.00;100874.41;5072186;28;20056;-67
2021/12/15 09:08:51;;;;;;;15.75;10.27;;;;;;;7.50;100.00;100881.19;5072081;28;20093;-68
2021/12/15 09:11:21;;;;;;;14.93;9.63;;;;;;;7.50;100.00;100875.25;5072555;28;20029;-68
2021/12/15 09:13:50;;;;;;;13.23;9.23;;;;;;;7.50;100.00;100865.16;5071941;28;20037;-68
2021/12/15 09:16:16;;;;;;;14.90;9.85;;;;;;;7.20;100.00;100876.13;5070584;28;20037;-68
2021/12/15 09:18:45;;;;;;;14.80;10.27;;;;;;;7.15;100.00;100867.69;5070728;28;20021;-68
2021/12/15 09:21:13;;;;;;;13.73;9.35;;;;;;;7.20;100.00;100867.69;5071679;28;20039;-69
2021/12/15 09:23:39;;;;;;;20.02;12.45;;;;;;;7.33;100.00;100869.38;5072096;28;20397;-68
2021/12/15 09:26:06;;;;;;;13.35;9.50;;;;;;;7.14;100.00;100871.06;5070437;28;20504;-68
2021/12/15 09:28:32;;;;;;;17.42;11.10;;;;;;;7.19;100.00;100866.84;5071630;28;20020;-69
2021/12/15 09:30:59;;;;;;;13.18;9.38;;;;;;;7.11;100.00;100872.75;5070491;28;20058;-68
2021/12/15 09:33:46;;;;;;;13.10;8.52;;;;;;;7.26;100.00;100865.16;5071741;28;20035;-68
2021/12/15 09:36:15;;;;;;;12.95;8.00;;;;;;;7.29;100.00;100860.94;5070075;28;20033;-68
2021/12/15 09:38:44;;;;;;;13.35;8.73;;;;;;;7.21;100.00;100849.97;5071519;28;20025;-67
2021/12/15 09:41:13;;;;;;;11.63;9.07;;;;;;;7.52;100.00;100844.06;5071503;28;20077;-67
2021/12/15 09:43:41;;;;;;;16.80;11.68;;;;;;;7.47;100.00;100863.44;5071232;28;20052;-67
2021/12/15 10:02:48;;;;;;;13.00;8.90;;;;;;;7.22;100.00;100883.69;5071286;28;20040;-68
2021/12/15 10:10:48;;;;;;;12.65;9.05;;;;;;;7.54;100.00;100865.16;5070946;28;20044;-68
2021/12/15 10:19:23;;;;;;;12.50;8.52;;;;;;;8.03;100.00;100862.47;5071056;28;20052;-67
2021/12/15 10:22:06;;;;;;;12.45;9.05;;;;;;;7.62;100.00;100860.91;5069758;28;20024;-67
2021/12/15 10:24:37;;;;;;;10.45;6.70;;;;;;;7.70;100.00;100863.44;5069699;28;20036;-67
2021/12/15 10:27:06;;;;;;;11.05;7.82;;;;;;;7.51;100.00;100851.63;5070670;28;20051;-68
2021/12/15 10:29:32;;;;;;;11.63;7.80;;;;;;;7.63;100.00;100839.81;5069498;28;20094;-67
2021/12/15 10:32:04;;;;;;;15.25;9.85;;;;;;;7.97;100.00;100838.03;5070905;28;20024;-66
2021/12/15 10:34:30;;;;;;;14.82;10.00;;;;;;;7.82;100.00;100846.50;5069375;28;20031;-67
2021/12/15 10:36:58;;;;;;;9.57;7.35;;;;;;;7.79;100.00;100844.00;5052922;28;20071;-67
2021/12/15 10:39:25;;;;;;;15.57;11.00;;;;;;;7.96;100.00;100835.50;5056559;28;20033;-67
2021/12/15 10:41:54;;;;;;;16.88;12.02;;;;;;;7.84;100.00;100844.81;5049253;28;20068;-71
2021/12/15 10:44:26;;;;;;;10.85;8.23;;;;;;;7.81;100.00;100800.97;5048272;28;20068;-67
2021/12/15 10:46:58;;;;;;;11.77;7.95;;;;;;;8.13;100.00;100841.34;5048810;28;20409;-67
2021/12/15 10:49:29;;;;;;;8.88;6.63;;;;;;;7.92;100.00;100833.84;5048387;28;20032;-67
2021/12/15 10:52:05;;;;;;;9.67;6.67;;;;;;;7.66;100.00;100836.44;5051064;28;20393;-68
2021/12/15 10:54:40;;;;;;;9.82;7.22;;;;;;;7.82;100.00;100838.91;5052930;28;20577;-67
2021/12/15 10:57:21;;;;;;;14.73;8.07;;;;;;;8.08;100.00;100836.28;5051648;28;20090;-68
2021/12/15 10:59:53;;;;;;;12.27;8.00;;;;;;;8.13;100.00;100839.66;5052964;28;20405;-68
2021/12/15 11:02:24;;;;;;;;;;;;;;;8.21;100.00;100853.13;5053470;28;20194;-67
2021/12/15 11:04:51;;;;;;;16.27;9.70;;;;;;;8.07;100.00;100849.81;5054003;28;19913;-68
2021/12/15 11:07:29;;;;;;;15.20;9.45;;;;;;;7.66;100.00;100839.81;5054048;28;20488;-68
2021/12/15 11:10:06;;;;;;;9.82;6.70;;;;;;;7.70;100.00;100840.66;5054231;28;20481;-69
2021/12/15 11:12:35;;;;;;;13.60;7.43;;;;;;;8.04;100.00;100837.19;5054505;28;20044;-69
2021/12/15 11:15:07;;;;;;;14.30;8.68;;;;;;;8.11;100.00;100843.03;5054286;28;20147;-68
2021/12/15 11:17:35;;;;;;;;;;;;;;;8.05;100.00;100830.41;5054589;28;20029;-68
2021/12/15 11:20:14;;;;;;;11.38;7.68;;;;;;;7.93;100.00;100831.28;5054376;28;20451;-68
2021/12/15 11:23:01;;;;;;;11.85;8.50;;;;;;;8.32;100.00;100837.94;5054060;28;20025;-68
2021/12/15 11:25:31;;;;;;;12.25;8.95;;;;;;;8.35;100.00;100826.06;5052733;28;20479;-67
2021/12/15 11:28:08;;;;;;;17.05;7.93;;;;;;;8.38;100.00;100790.59;5054245;28;20380;-69
2021/12/15 11:30:42;;;;;;;9.52;6.80;;;;;;;8.19;100.00;100838.78;5054154;28;20103;-67
2021/12/15 11:33:18;;;;;;;13.10;8.70;;;;;;;8.50;100.00;100831.06;5053956;28;20039;-68
2021/12/15 11:36:15;;;;;;;10.52;7.40;;;;;;;8.28;100.00;100832.00;5053899;28;20032;-68
2021/12/15 11:38:46;;;;;;;8.93;6.60;;;;;;;8.07;100.00;100826.16;5053785;28;20033;-67
2021/12/15 11:41:37;;;;;;;9.60;7.50;;;;;;;7.85;100.00;100802.63;5054335;28;20520;-67
2021/12/15 11:44:07;;;;;;;10.88;7.45;;;;;;;8.37;100.00;100819.31;5052395;28;20049;-67
2021/12/15 11:46:52;;;;;;;11.05;8.07;;;;;;;8.40;100.00;100824.34;5052266;28;20044;-68
2021/12/15 11:49:22;;;;;;;13.82;10.00;;;;;;;8.47;100.00;100826.00;5053693;28;20057;-67
2021/12/15 11:51:49;;;;;;;10.82;7.85;;;;;;;8.10;100.00;100824.47;5053757;28;20064;-67
2021/12/15 11:54:31;;;;;;;11.20;8.05;;;;;;;8.39;100.00;100832.81;5053433;28;20029;-67
2021/12/15 11:57:03;;;;;;;12.25;8.23;;;;;;;8.10;100.00;100824.47;5053509;28;20029;-67
2021/12/15 11:59:40;;;;;;;10.52;7.00;;;;;;;7.99;100.00;100828.75;5053548;28;20060;-67
2021/12/15 12:02:19;;;;;;;12.30;8.77;;;;;;;7.94;100.00;100835.53;5053571;28;20104;-68
2021/12/15 12:04:52;;;;;;;13.07;7.78;;;;;;;8.21;100.00;100829.47;5052747;28;20039;-70
2021/12/15 12:07:41;;;;;;;12.55;9.27;;;;;;;8.52;100.00;100828.50;5051970;28;20479;-68
2021/12/15 12:10:19;;;;;;;12.50;7.97;;;;;;;7.96;100.00;100827.91;5053366;28;20109;-68
2021/12/15 12:13:03;;;;;;;13.23;9.05;;;;;;;8.32;100.00;100830.31;5053339;28;20037;-68
2021/12/15 12:15:31;;;;;;;11.45;7.38;;;;;;;8.12;100.00;100822.75;5052044;28;20459;-68
2021/12/15 12:18:04;;;;;;;12.70;8.60;;;;;;;8.17;100.00;100822.75;5053024;28;20098;-67
2021/12/15 12:20:38;;;;;;;11.07;7.90;;;;;;;8.09;100.00;100839.66;5051898;28;20030;-68
2021/12/15 12:23:07;;;;;;;12.68;9.20;;;;;;;8.26;100.00;100810.91;5053245;28;20513;-68
2021/12/15 12:25:37;;;;;;;13.98;8.43;;;;;;;7.69;100.00;100836.44;5052863;28;20033;-68
2021/12/15 12:28:09;;;;;;;14.15;8.93;;;;;;;7.87;100.00;100816.13;5051593;28;20120;-67
2021/12/15 12:30:37;;;;;;;;;;;;;;;8.35;100.00;100851.41;5052229;28;20028;-67
2021/12/15 12:33:08;;;;;;;13.73;9.13;;;;;;;7.64;100.00;100849.09;5051461;28;20011;-68
2021/12/15 12:35:48;;;;;;;12.20;8.20;;;;;;;7.57;100.00;100811.16;5052724;28;20021;-68
2021/12/15 12:38:22;;;;;;;12.27;8.45;;;;;;;7.60;100.00;100854.16;5052909;28;20071;-68
2021/12/15 12:41:00;;;;;;;10.50;7.45;;;;;;;7.14;100.00;100828.09;5051508;28;20033;-68
2021/12/15 12:43:52;;;;;;;15.13;10.27;;;;;;;7.22;100.00;100816.28;5052395;28;20571;-67
2021/12/15 12:46:49;;;;;;;17.27;9.23;;;;;;;7.57;100.00;100859.22;5051192;28;20484;-69
2021/12/15 13:00:45;;;;;;;17.60;11.10;;;;;;;8.67;100.00;100861.38;5052670;28;20032;-68
2021/12/15 13:03:33;;;;;;;14.55;8.90;;;;;;;8.44;100.00;100860.63;5052282;28;20021;-68
2021/12/15 13:06:01;;;;;;;16.05;9.02;;;;;;;8.26;100.00;100853.16;5052151;28;20029;-68
2021/12/15 13:08:38;;;;;;;16.83;10.55;;;;;;;8.00;100.00;100857.44;5052213;28;20021;-68